createdAt,value
2022-07-29T00:00:50.497Z,87.73
2022-07-29T00:03:17.082Z,87.61
2022-07-29T00:05:43.651Z,87.67
2022-07-29T00:08:12.515Z,87.98
2022-07-29T00:10:39.705Z,87.84
2022-07-29T00:13:06.454Z,87.82
2022-07-29T00:15:32.969Z,88.00
2022-07-29T00:17:59.546Z,88.08
2022-07-29T00:20:26.147Z,87.81
2022-07-29T00:22:53.013Z,87.84
2022-07-29T00:25:20.346Z,87.54
2022-07-29T00:27:47.240Z,87.85
2022-07-29T00:30:13.911Z,88.66
2022-07-29T00:32:40.512Z,89.60
2022-07-29T00:35:37.105Z,89.82
2022-07-29T00:38:03.653Z,89.24
2022-07-29T00:40:30.245Z,88.68
2022-07-29T00:42:56.765Z,88.43
2022-07-29T00:45:23.531Z,88.35
2022-07-29T00:47:50.329Z,88.90
2022-07-29T00:50:17.951Z,89.42
2022-07-29T00:52:44.961Z,89.57
2022-07-29T00:55:15.156Z,88.95
2022-07-29T00:57:43.678Z,88.61
2022-07-29T01:00:13.862Z,89.05
2022-07-29T01:02:40.516Z,88.94
2022-07-29T01:05:08.391Z,88.70
2022-07-29T01:07:37.072Z,88.69
2022-07-29T01:10:05.793Z,88.46
2022-07-29T01:12:34.776Z,88.23
2022-07-29T01:15:03.602Z,88.37
2022-07-29T01:17:37.991Z,88.31
2022-07-29T01:20:35.877Z,88.02
2022-07-29T01:23:28.492Z,87.95
2022-07-29T01:26:34.120Z,87.87
2022-07-29T01:29:14.296Z,87.70
2022-07-29T01:32:00.856Z,87.63
2022-07-29T01:34:41.853Z,87.51
2022-07-29T01:37:25.412Z,88.14
2022-07-29T01:39:55.305Z,89.06
2022-07-29T01:42:33.185Z,89.59
2022-07-29T01:45:18.129Z,89.02
2022-07-29T01:47:52.309Z,88.88
2022-07-29T01:50:22.347Z,88.95
2022-07-29T01:52:59.560Z,88.88
2022-07-29T01:55:32.125Z,88.91
2022-07-29T01:58:01.917Z,89.12
2022-07-29T02:00:29.360Z,89.03
2022-07-29T02:02:57.899Z,88.99
2022-07-29T02:05:28.498Z,89.03
2022-07-29T02:07:58.950Z,89.26
2022-07-29T02:10:32.403Z,89.38
2022-07-29T02:13:00.370Z,89.38
2022-07-29T02:15:29.787Z,89.32
2022-07-29T02:18:01.008Z,89.70
2022-07-29T02:20:29.082Z,89.99
2022-07-29T02:22:58.198Z,89.79
2022-07-29T02:25:25.403Z,89.42
2022-07-29T02:28:05.097Z,89.22
2022-07-29T02:30:32.879Z,89.41
2022-07-29T02:33:00.475Z,89.36
2022-07-29T02:35:27.630Z,89.22
2022-07-29T02:38:20.729Z,89.48
2022-07-29T02:40:48.166Z,89.03
2022-07-29T02:43:15.193Z,89.00
2022-07-29T02:45:43.008Z,88.79
2022-07-29T02:48:16.158Z,88.48
2022-07-29T02:50:52.742Z,88.73
2022-07-29T02:53:23.459Z,88.63
2022-07-29T02:55:56.457Z,88.78
2022-07-29T02:58:29.544Z,88.84
2022-07-29T03:01:21.635Z,88.79
2022-07-29T03:03:50.687Z,88.81
2022-07-29T03:06:28.124Z,88.68
2022-07-29T03:09:06.735Z,88.71
2022-07-29T03:11:41.514Z,88.74
2022-07-29T03:14:17.820Z,88.98
2022-07-29T03:16:44.761Z,88.57
2022-07-29T03:19:11.949Z,88.60
2022-07-29T03:21:38.487Z,88.31
2022-07-29T03:24:09.904Z,88.61
2022-07-29T03:26:37.232Z,88.61
2022-07-29T03:29:03.975Z,88.31
2022-07-29T03:31:30.654Z,88.90
2022-07-29T03:33:58.482Z,89.03
2022-07-29T03:36:25.815Z,89.08
2022-07-29T03:38:53.173Z,88.99
2022-07-29T03:41:22.569Z,88.93
2022-07-29T03:43:52.381Z,88.97
2022-07-29T03:46:22.014Z,88.93
2022-07-29T03:48:51.676Z,89.29
2022-07-29T03:51:18.443Z,89.68
2022-07-29T03:54:00.514Z,90.05
2022-07-29T03:56:29.036Z,90.43
2022-07-29T03:58:56.567Z,90.56
2022-07-29T04:01:23.839Z,90.45
2022-07-29T04:03:50.684Z,90.88
2022-07-29T04:06:17.314Z,90.82
2022-07-29T04:08:43.890Z,90.86
2022-07-29T04:11:10.589Z,91.48
2022-07-29T04:13:37.098Z,91.69
2022-07-29T04:16:03.870Z,92.17
2022-07-29T04:18:30.441Z,92.72
2022-07-29T04:20:57.041Z,92.76
2022-07-29T04:23:23.582Z,93.63
2022-07-29T04:25:50.250Z,93.99
2022-07-29T04:28:17.083Z,93.90
2022-07-29T04:30:43.914Z,94.06
2022-07-29T04:33:10.537Z,94.12
2022-07-29T04:35:43.645Z,93.60
2022-07-29T04:38:17.345Z,94.11
2022-07-29T04:40:44.097Z,95.14
2022-07-29T04:43:10.631Z,95.04
2022-07-29T04:45:39.135Z,95.82
2022-07-29T04:48:06.090Z,96.50
2022-07-29T04:50:32.875Z,96.58
2022-07-29T04:52:59.448Z,96.39
2022-07-29T04:55:26.445Z,96.29
2022-07-29T04:57:52.980Z,96.46
2022-07-29T05:00:19.562Z,97.14
2022-07-29T05:02:46.194Z,96.70
2022-07-29T05:05:12.775Z,97.60
2022-07-29T05:07:41.964Z,97.62
2022-07-29T05:10:09.630Z,98.14
2022-07-29T05:12:36.628Z,98.31
2022-07-29T05:15:03.337Z,98.65
2022-07-29T05:17:30.034Z,98.47
2022-07-29T05:19:56.649Z,98.46
2022-07-29T05:22:23.237Z,99.16
2022-07-29T05:24:49.762Z,99.12
2022-07-29T05:27:16.328Z,99.11
2022-07-29T05:29:45.622Z,99.41
2022-07-29T05:32:13.628Z,99.13
2022-07-29T05:34:51.109Z,99.34
2022-07-29T05:37:20.536Z,99.49
2022-07-29T05:39:49.126Z,98.98
2022-07-29T05:42:17.536Z,99.29
2022-07-29T05:44:44.144Z,99.79
2022-07-29T05:47:10.724Z,100.00
2022-07-29T05:49:37.420Z,100.00
2022-07-29T05:52:04.415Z,99.73
2022-07-29T05:54:30.968Z,99.04
2022-07-29T05:56:57.577Z,99.47
2022-07-29T05:59:29.826Z,99.02
2022-07-29T06:01:58.143Z,99.13
2022-07-29T06:04:25.065Z,99.33
2022-07-29T06:06:51.684Z,99.76
2022-07-29T06:09:18.235Z,99.48
2022-07-29T06:11:44.822Z,99.41
2022-07-29T06:14:11.546Z,99.05
2022-07-29T06:16:38.122Z,97.69
2022-07-29T06:19:05.393Z,97.14
2022-07-29T06:21:32.094Z,97.55
2022-07-29T06:23:58.702Z,96.66
2022-07-29T06:26:30.360Z,96.63
2022-07-29T06:28:58.145Z,96.53
2022-07-29T06:31:24.753Z,96.14
2022-07-29T06:33:51.433Z,95.98
2022-07-29T06:36:21.273Z,96.66
2022-07-29T06:38:51.347Z,95.52
2022-07-29T06:41:19.119Z,94.84
2022-07-29T06:43:51.796Z,94.61
2022-07-29T06:46:21.938Z,93.58
2022-07-29T06:48:49.007Z,91.92
2022-07-29T06:51:15.934Z,90.67
2022-07-29T06:54:01.603Z,90.87
2022-07-29T06:56:31.687Z,92.00
2022-07-29T06:58:58.474Z,91.87
2022-07-29T07:01:25.060Z,91.73
2022-07-29T07:03:51.665Z,92.18
2022-07-29T07:06:18.247Z,91.55
2022-07-29T07:08:44.802Z,91.76
2022-07-29T07:11:11.386Z,90.54
2022-07-29T07:13:37.936Z,88.94
2022-07-29T07:16:05.344Z,87.93
2022-07-29T07:18:32.106Z,87.24
2022-07-29T07:20:59.302Z,86.14
2022-07-29T07:23:25.918Z,86.46
2022-07-29T07:25:52.515Z,85.88
2022-07-29T07:28:19.590Z,85.92
2022-07-29T07:30:52.196Z,86.43
2022-07-29T07:33:19.011Z,86.40
2022-07-29T07:35:45.647Z,86.29
2022-07-29T07:38:12.516Z,86.16
2022-07-29T07:40:39.104Z,85.79
2022-07-29T07:43:05.628Z,85.16
2022-07-29T07:45:34.030Z,84.82
2022-07-29T07:48:00.969Z,83.53
2022-07-29T07:50:27.777Z,83.10
2022-07-29T07:52:58.814Z,83.00
2022-07-29T07:55:26.648Z,83.69
2022-07-29T07:57:54.567Z,84.34
2022-07-29T08:00:22.922Z,84.13
2022-07-29T08:02:51.335Z,82.98
2022-07-29T08:05:19.011Z,82.59
2022-07-29T08:07:48.565Z,80.41
2022-07-29T08:10:36.879Z,78.83
2022-07-29T08:13:05.848Z,78.31
2022-07-29T08:15:32.331Z,76.29
2022-07-29T08:17:59.386Z,77.70
2022-07-29T08:20:26.339Z,78.18
2022-07-29T08:22:53.744Z,78.26
2022-07-29T08:25:21.649Z,77.54
2022-07-29T08:27:48.728Z,76.62
2022-07-29T08:30:15.505Z,77.24
2022-07-29T08:32:57.945Z,76.11
2022-07-29T08:35:25.531Z,75.12
2022-07-29T08:37:53.400Z,75.58
2022-07-29T08:40:32.412Z,74.60
2022-07-29T08:42:59.916Z,73.60
2022-07-29T08:45:27.195Z,73.01
2022-07-29T08:47:53.852Z,72.05
2022-07-29T08:50:20.417Z,71.37
2022-07-29T08:52:49.573Z,70.66
2022-07-29T08:55:16.725Z,71.08
2022-07-29T08:57:51.116Z,67.74
2022-07-29T09:00:25.717Z,69.61
2022-07-29T09:02:59.741Z,68.87
2022-07-29T09:05:27.586Z,69.27
2022-07-29T09:07:54.764Z,64.91
2022-07-29T09:10:21.890Z,64.22
2022-07-29T09:12:49.810Z,63.73
2022-07-29T09:15:16.412Z,63.65
2022-07-29T09:17:50.286Z,64.34
2022-07-29T09:20:19.648Z,65.00
2022-07-29T09:22:54.420Z,65.03
2022-07-29T09:25:37.499Z,62.60
2022-07-29T09:28:09.408Z,63.25
2022-07-29T09:30:36.686Z,59.49
2022-07-29T09:33:04.445Z,58.85
2022-07-29T09:35:31.928Z,59.74
2022-07-29T09:37:58.549Z,60.25
2022-07-29T09:40:27.881Z,60.02
2022-07-29T09:42:58.138Z,58.49
2022-07-29T09:45:32.839Z,60.04
2022-07-29T09:48:01.497Z,60.33
2022-07-29T09:50:39.178Z,57.86
2022-07-29T09:53:05.894Z,58.49
2022-07-29T09:55:32.775Z,59.76
2022-07-29T09:58:18.456Z,57.32
2022-07-29T10:00:46.775Z,56.87
2022-07-29T10:03:15.094Z,57.03
2022-07-29T10:05:43.100Z,56.32
2022-07-29T10:08:11.111Z,56.91
2022-07-29T10:10:40.527Z,55.89
2022-07-29T10:13:13.546Z,56.10
2022-07-29T10:15:46.098Z,54.56
2022-07-29T10:18:14.572Z,55.54
2022-07-29T10:20:41.393Z,53.10
2022-07-29T10:23:08.240Z,53.53
2022-07-29T10:25:34.833Z,55.40
2022-07-29T10:28:01.576Z,54.98
2022-07-29T10:30:28.560Z,54.33
2022-07-29T10:32:57.762Z,53.59
2022-07-29T10:36:04.857Z,54.38
2022-07-29T10:38:50.068Z,57.18
2022-07-29T10:41:29.006Z,58.80
2022-07-29T10:44:05.520Z,60.35
2022-07-29T10:46:38.657Z,59.97
2022-07-29T10:49:15.486Z,60.96
2022-07-29T10:51:51.484Z,61.20
2022-07-29T10:54:19.225Z,59.85
2022-07-29T10:56:46.811Z,57.37
2022-07-29T10:59:21.663Z,57.51
2022-07-29T11:01:53.754Z,58.14
2022-07-29T11:07:46.207Z,55.68
2022-07-29T11:10:16.236Z,54.90
2022-07-29T11:12:42.884Z,56.54
2022-07-29T11:15:21.759Z,55.25
2022-07-29T11:17:54.673Z,54.65
2022-07-29T11:20:51.013Z,55.33
2022-07-29T11:23:44.526Z,54.80
2022-07-29T11:26:13.377Z,52.59
2022-07-29T11:28:51.128Z,52.54
2022-07-29T11:31:36.107Z,53.22
2022-07-29T11:34:18.856Z,53.87
2022-07-29T11:37:06.257Z,51.99
2022-07-29T11:39:36.245Z,53.56
2022-07-29T11:42:28.242Z,52.44
2022-07-29T11:45:40.375Z,51.22
2022-07-29T11:47:56.340Z,51.31
2022-07-29T11:50:33.711Z,50.82
2022-07-29T11:53:04.186Z,50.83
2022-07-29T11:55:50.772Z,50.74
2022-07-29T11:58:25.066Z,51.86
2022-07-29T12:00:53.144Z,54.04
2022-07-29T12:03:33.349Z,54.74
2022-07-29T12:06:02.625Z,56.89
2022-07-29T12:08:29.182Z,56.76
2022-07-29T12:10:55.901Z,55.32
2022-07-29T12:13:23.050Z,56.90
2022-07-29T12:16:04.984Z,56.93
2022-07-29T12:18:32.630Z,58.06
2022-07-29T12:21:06.096Z,59.14
2022-07-29T12:23:34.937Z,59.46
2022-07-29T12:26:07.205Z,60.64
2022-07-29T12:28:39.999Z,60.27
2022-07-29T12:31:08.175Z,61.01
2022-07-29T12:33:36.106Z,61.80
2022-07-29T12:36:06.809Z,61.23
2022-07-29T12:38:35.880Z,60.72
2022-07-29T12:41:04.307Z,61.15
2022-07-29T12:43:31.623Z,61.08
2022-07-29T12:46:12.086Z,61.15
2022-07-29T12:48:41.445Z,60.73
2022-07-29T12:51:10.071Z,60.35
2022-07-29T12:53:38.181Z,60.85
2022-07-29T12:56:20.682Z,59.99
2022-07-29T12:58:52.753Z,59.33
2022-07-29T13:01:21.140Z,59.68
2022-07-29T13:04:03.888Z,59.39
2022-07-29T13:06:34.979Z,60.58
2022-07-29T13:09:12.712Z,59.24
2022-07-29T13:11:47.947Z,58.12
2022-07-29T13:14:36.784Z,58.41
2022-07-29T13:17:15.017Z,58.16
2022-07-29T13:19:52.983Z,57.48
2022-07-29T13:22:25.067Z,58.08
2022-07-29T13:24:56.991Z,58.19
2022-07-29T13:27:28.565Z,56.97
2022-07-29T13:29:58.356Z,56.90
2022-07-29T13:32:28.336Z,57.13
2022-07-29T13:34:57.108Z,57.00
2022-07-29T13:37:23.730Z,57.45
2022-07-29T13:39:52.934Z,58.10
2022-07-29T13:42:20.097Z,59.72
2022-07-29T13:44:46.682Z,58.33
2022-07-29T13:47:13.746Z,56.57
2022-07-29T13:49:40.351Z,55.16
2022-07-29T13:52:08.396Z,55.41
2022-07-29T13:54:41.973Z,54.93
2022-07-29T13:57:10.410Z,55.64
2022-07-29T13:59:36.955Z,55.37
2022-07-29T14:02:03.867Z,55.82
2022-07-29T14:04:30.508Z,55.00
2022-07-29T14:06:57.097Z,54.58
2022-07-29T14:09:23.911Z,54.22
2022-07-29T14:11:52.270Z,53.06
2022-07-29T14:14:18.852Z,52.11
2022-07-29T14:16:47.850Z,52.17
2022-07-29T14:19:18.573Z,53.10
2022-07-29T14:21:54.400Z,52.33
2022-07-29T14:24:23.929Z,52.67
2022-07-29T14:26:51.822Z,51.14
2022-07-29T14:29:18.451Z,50.41
2022-07-29T14:31:45.049Z,50.95
2022-07-29T14:34:11.699Z,50.70
2022-07-29T14:36:38.211Z,51.34
2022-07-29T14:39:05.170Z,50.58
2022-07-29T14:41:31.742Z,49.56
2022-07-29T14:44:01.513Z,50.38
2022-07-29T14:46:28.903Z,49.71
2022-07-29T14:48:55.791Z,51.11
2022-07-29T14:51:22.404Z,51.04
2022-07-29T14:53:49.014Z,50.52
2022-07-29T14:56:36.064Z,51.10
2022-07-29T14:59:02.064Z,51.92
2022-07-29T15:01:28.899Z,52.27
2022-07-29T15:03:59.530Z,52.04
2022-07-29T15:06:27.221Z,52.85
2022-07-29T15:08:53.895Z,53.76
2022-07-29T15:11:20.422Z,54.36
2022-07-29T15:13:46.948Z,54.52
2022-07-29T15:16:13.547Z,54.05
2022-07-29T15:18:40.210Z,54.17
2022-07-29T15:21:07.976Z,54.35
2022-07-29T15:23:37.282Z,54.67
2022-07-29T15:26:05.149Z,55.78
2022-07-29T15:28:31.740Z,56.04
2022-07-29T15:30:58.361Z,56.89
2022-07-29T15:33:24.980Z,57.98
2022-07-29T15:35:51.624Z,55.74
2022-07-29T15:38:18.661Z,55.15
2022-07-29T15:40:46.588Z,55.16
2022-07-29T15:43:13.582Z,55.78
2022-07-29T15:45:42.378Z,56.54
2022-07-29T15:48:10.233Z,57.30
2022-07-29T15:50:41.395Z,58.02
2022-07-29T15:53:08.010Z,60.32
2022-07-29T15:55:34.540Z,61.51
2022-07-29T15:58:01.056Z,61.14
2022-07-29T16:00:27.771Z,60.79
2022-07-29T16:02:54.288Z,60.37
2022-07-29T16:05:20.828Z,59.53
2022-07-29T16:07:47.397Z,60.28
2022-07-29T16:10:14.019Z,59.68
2022-07-29T16:12:40.723Z,60.55
2022-07-29T16:15:10.474Z,62.00
2022-07-29T16:17:38.157Z,62.60
2022-07-29T16:20:06.359Z,62.78
2022-07-29T16:22:32.937Z,63.64
2022-07-29T16:37:43.363Z,65.46
2022-07-29T16:40:11.669Z,67.18
2022-07-29T16:42:47.246Z,71.64
2022-07-29T16:45:15.510Z,73.92
2022-07-29T16:47:42.310Z,74.22
2022-07-29T16:50:09.219Z,74.08
2022-07-29T16:52:37.572Z,75.01
2022-07-29T16:55:04.750Z,76.05
2022-07-29T16:57:31.306Z,76.70
2022-07-29T16:59:57.877Z,77.19
2022-07-29T17:02:24.876Z,77.55
2022-07-29T17:04:51.992Z,78.65
2022-07-29T17:07:19.103Z,79.07
2022-07-29T17:09:45.660Z,79.45
2022-07-29T17:12:12.186Z,80.38
2022-07-29T17:14:38.811Z,80.44
2022-07-29T17:17:15.705Z,80.34
2022-07-29T17:19:47.296Z,80.30
2022-07-29T17:22:19.066Z,81.12
2022-07-29T17:24:47.271Z,80.96
2022-07-29T17:27:14.207Z,81.44
2022-07-29T17:29:40.902Z,82.01
2022-07-29T17:32:09.395Z,82.20
2022-07-29T17:34:37.383Z,82.24
2022-07-29T17:37:05.244Z,83.30
2022-07-29T17:39:32.139Z,83.61
2022-07-29T17:41:59.355Z,83.54
2022-07-29T17:44:25.905Z,84.30
2022-07-29T17:46:52.529Z,84.45
2022-07-29T17:49:19.247Z,84.29
2022-07-29T17:51:46.092Z,84.37
2022-07-29T17:54:12.631Z,84.30
2022-07-29T17:56:39.179Z,84.27
2022-07-29T17:59:10.244Z,83.80
2022-07-29T18:01:38.128Z,83.61
2022-07-29T18:04:04.898Z,84.54
2022-07-29T18:06:31.488Z,85.62
2022-07-29T18:08:58.013Z,85.82
2022-07-29T18:11:24.619Z,85.93
2022-07-29T18:13:51.251Z,85.93
2022-07-29T18:16:18.534Z,87.30
2022-07-29T18:18:45.306Z,88.07
2022-07-29T18:21:12.012Z,87.53
2022-07-29T18:23:38.746Z,87.20
2022-07-29T18:26:05.291Z,86.89
2022-07-29T18:28:32.897Z,87.50
2022-07-29T18:31:00.593Z,87.60
2022-07-29T18:33:27.902Z,87.67
2022-07-29T18:36:07.598Z,87.52
2022-07-29T18:38:39.706Z,87.46
2022-07-29T18:41:06.324Z,87.85
2022-07-29T18:43:32.937Z,89.87
2022-07-29T18:45:59.551Z,90.26
2022-07-29T18:48:26.089Z,90.47
2022-07-29T18:50:52.670Z,90.11
2022-07-29T18:53:19.270Z,91.59
2022-07-29T18:55:46.119Z,91.81
2022-07-29T18:58:12.672Z,92.17
2022-07-29T19:00:39.270Z,91.79
2022-07-29T19:03:06.089Z,91.04
2022-07-29T19:05:32.975Z,90.59
2022-07-29T19:07:59.777Z,90.39
2022-07-29T19:10:26.945Z,90.59
2022-07-29T19:12:54.363Z,91.33
2022-07-29T19:15:20.873Z,92.62
2022-07-29T19:17:48.610Z,93.55
2022-07-29T19:20:15.912Z,93.94
2022-07-29T19:22:42.728Z,94.36
2022-07-29T19:25:10.115Z,94.42
2022-07-29T19:27:36.774Z,94.38
2022-07-29T19:30:06.450Z,94.16
2022-07-29T19:32:33.104Z,94.96
2022-07-29T19:35:18.180Z,95.37
2022-07-29T19:37:44.758Z,94.54
2022-07-29T19:40:12.285Z,93.72
2022-07-29T19:42:38.985Z,94.67
2022-07-29T19:45:06.102Z,95.75
2022-07-29T19:47:32.653Z,96.56
2022-07-29T19:50:00.564Z,96.44
2022-07-29T19:52:27.674Z,96.02
2022-07-29T19:54:54.344Z,95.51
2022-07-29T19:57:20.853Z,95.44
2022-07-29T19:59:47.416Z,95.65
2022-07-29T20:02:14.358Z,95.43
2022-07-29T20:04:42.764Z,94.66
2022-07-29T20:07:09.515Z,94.14
2022-07-29T20:09:36.083Z,93.95
2022-07-29T20:12:04.736Z,93.95
2022-07-29T20:14:31.280Z,93.62
2022-07-29T20:16:57.855Z,93.60
2022-07-29T20:19:24.438Z,93.50
2022-07-29T20:21:51.507Z,93.41
2022-07-29T20:24:19.329Z,93.74
2022-07-29T20:26:46.057Z,93.60
2022-07-29T20:29:12.710Z,94.39
2022-07-29T20:31:39.291Z,95.51
2022-07-29T20:34:06.202Z,95.57
2022-07-29T20:36:32.781Z,95.11
2022-07-29T20:39:02.196Z,95.15
2022-07-29T20:41:29.143Z,95.75
2022-07-29T20:43:56.100Z,96.02
2022-07-29T20:46:22.701Z,96.42
2022-07-29T20:48:49.505Z,96.74
2022-07-29T20:51:16.120Z,96.00
2022-07-29T20:53:42.660Z,95.22
2022-07-29T20:56:09.252Z,95.57
2022-07-29T20:58:36.580Z,95.64
2022-07-29T21:01:05.086Z,96.40
2022-07-29T21:03:32.499Z,96.03
2022-07-29T21:06:00.287Z,95.58
2022-07-29T21:08:27.570Z,95.00
2022-07-29T21:10:54.255Z,94.27
2022-07-29T21:13:22.462Z,93.96
2022-07-29T21:15:52.701Z,93.88
2022-07-29T21:18:32.876Z,93.45
2022-07-29T21:21:00.844Z,93.37
2022-07-29T21:23:28.007Z,93.49
2022-07-29T21:25:55.511Z,93.96
2022-07-29T21:28:29.504Z,96.08
2022-07-29T21:30:59.396Z,96.78
2022-07-29T21:33:30.757Z,97.64
2022-07-29T21:38:44.303Z,97.42
2022-07-29T21:41:12.611Z,97.23
2022-07-29T21:43:41.954Z,97.75
2022-07-29T21:46:09.379Z,97.77
2022-07-29T21:48:36.218Z,97.89
2022-07-29T21:51:03.024Z,97.75
2022-07-29T21:53:30.686Z,98.61
2022-07-29T21:55:57.473Z,98.83
2022-07-29T21:58:24.878Z,98.18
2022-07-29T22:00:51.984Z,97.53
2022-07-29T22:03:18.540Z,97.37
2022-07-29T22:05:45.430Z,96.95
2022-07-29T22:08:12.041Z,96.39
2022-07-29T22:10:38.689Z,96.41
2022-07-29T22:13:05.334Z,96.52
2022-07-29T22:15:32.332Z,96.29
2022-07-29T22:17:59.545Z,96.15
2022-07-29T22:20:26.135Z,96.59
2022-07-29T22:22:53.235Z,96.78
2022-07-29T22:25:20.210Z,96.38
2022-07-29T22:27:46.992Z,96.32
2022-07-29T22:30:13.899Z,96.35
2022-07-29T22:32:40.753Z,96.76
2022-07-29T22:35:07.879Z,97.49
2022-07-29T22:37:34.568Z,97.77
2022-07-29T22:40:01.515Z,97.41
2022-07-29T22:42:28.041Z,97.21
2022-07-29T22:44:54.617Z,96.59
2022-07-29T22:47:46.480Z,97.34
2022-07-29T22:50:08.125Z,97.87
2022-07-29T22:52:34.680Z,97.59
2022-07-29T22:55:01.218Z,97.37
2022-07-29T22:57:28.423Z,97.08
2022-07-29T22:59:55.097Z,96.71
2022-07-29T23:02:21.618Z,96.61
2022-07-29T23:04:48.131Z,96.72
2022-07-29T23:07:14.714Z,97.26
2022-07-29T23:09:41.718Z,98.40
2022-07-29T23:12:08.695Z,99.33
2022-07-29T23:14:35.415Z,99.81
2022-07-29T23:17:02.317Z,99.75
2022-07-29T23:19:29.287Z,99.70
2022-07-29T23:21:55.874Z,99.54
2022-07-29T23:24:22.411Z,98.72
2022-07-29T23:26:49.012Z,98.10
2022-07-29T23:29:17.867Z,97.80
2022-07-29T23:31:48.281Z,97.39
2022-07-29T23:34:15.078Z,97.71
2022-07-29T23:36:42.537Z,97.98
2022-07-29T23:39:13.276Z,97.67
2022-07-29T23:41:40.298Z,97.50
2022-07-29T23:44:07.350Z,97.39
2022-07-29T23:46:34.403Z,97.19
2022-07-29T23:49:01.136Z,97.32
2022-07-29T23:51:29.331Z,97.57
2022-07-29T23:53:56.798Z,98.09
2022-07-29T23:56:23.840Z,97.84
2022-07-29T23:58:50.629Z,97.60
